sensor_id;sensor_type;location;lat;lon;timestamp;P1;durP1;ratioP1;P2;durP2;ratioP2
69005;SDS011;56061;51.748;19.620;2023-03-03T00:01:47;72.40;;;25.50;;
69005;SDS011;56061;51.748;19.620;2023-03-03T00:04:13;67.00;;;24.10;;
69005;SDS011;56061;51.748;19.620;2023-03-03T00:06:39;66.40;;;25.00;;
69005;SDS011;56061;51.748;19.620;2023-03-03T00:09:06;64.60;;;24.10;;
69005;SDS011;56061;51.748;19.620;2023-03-03T00:11:32;66.20;;;24.90;;
69005;SDS011;56061;51.748;19.620;2023-03-03T00:13:59;63.20;;;25.30;;
69005;SDS011;56061;51.748;19.620;2023-03-03T00:16:31;54.40;;;22.20;;
69005;SDS011;56061;51.748;19.620;2023-03-03T00:19:03;69.60;;;27.00;;
69005;SDS011;56061;51.748;19.620;2023-03-03T00:21:41;63.00;;;24.30;;
69005;SDS011;56061;51.748;19.620;2023-03-03T00:24:14;75.20;;;26.50;;
69005;SDS011;56061;51.748;19.620;2023-03-03T00:27:16;69.90;;;25.90;;
69005;SDS011;56061;51.748;19.620;2023-03-03T00:29:56;64.00;;;23.20;;
69005;SDS011;56061;51.748;19.620;2023-03-03T00:32:41;70.00;;;25.70;;
69005;SDS011;56061;51.748;19.620;2023-03-03T00:35:22;67.50;;;24.00;;
69005;SDS011;56061;51.748;19.620;2023-03-03T00:37:57;68.00;;;24.20;;
69005;SDS011;56061;51.748;19.620;2023-03-03T00:40:35;58.00;;;23.10;;
69005;SDS011;56061;51.748;19.620;2023-03-03T00:43:17;57.40;;;21.20;;
69005;SDS011;56061;51.748;19.620;2023-03-03T00:48:20;59.40;;;22.60;;
69005;SDS011;56061;51.748;19.620;2023-03-03T00:50:47;84.30;;;28.90;;
69005;SDS011;56061;51.748;19.620;2023-03-03T00:53:17;90.30;;;31.00;;
69005;SDS011;56061;51.748;19.620;2023-03-03T00:55:47;90.10;;;30.60;;
69005;SDS011;56061;51.748;19.620;2023-03-03T00:58:15;88.80;;;29.90;;
69005;SDS011;56061;51.748;19.620;2023-03-03T01:00:42;87.90;;;31.30;;
69005;SDS011;56061;51.748;19.620;2023-03-03T01:03:13;92.70;;;33.50;;
69005;SDS011;56061;51.748;19.620;2023-03-03T01:05:41;104.80;;;36.30;;
69005;SDS011;56061;51.748;19.620;2023-03-03T01:08:08;84.70;;;30.60;;
69005;SDS011;56061;51.748;19.620;2023-03-03T01:10:39;71.00;;;27.90;;
69005;SDS011;56061;51.748;19.620;2023-03-03T01:13:09;57.40;;;22.70;;
69005;SDS011;56061;51.748;19.620;2023-03-03T01:15:37;57.10;;;22.40;;
69005;SDS011;56061;51.748;19.620;2023-03-03T01:18:06;54.80;;;21.40;;
69005;SDS011;56061;51.748;19.620;2023-03-03T01:20:33;53.40;;;20.40;;
69005;SDS011;56061;51.748;19.620;2023-03-03T01:22:59;48.10;;;18.50;;
69005;SDS011;56061;51.748;19.620;2023-03-03T01:25:26;47.20;;;17.50;;
69005;SDS011;56061;51.748;19.620;2023-03-03T01:27:53;52.30;;;18.40;;
69005;SDS011;56061;51.748;19.620;2023-03-03T01:30:19;54.20;;;19.10;;
69005;SDS011;56061;51.748;19.620;2023-03-03T01:32:46;54.50;;;18.40;;
69005;SDS011;56061;51.748;19.620;2023-03-03T01:35:13;50.80;;;18.40;;
69005;SDS011;56061;51.748;19.620;2023-03-03T01:37:40;53.50;;;18.60;;
69005;SDS011;56061;51.748;19.620;2023-03-03T01:40:13;47.80;;;17.90;;
69005;SDS011;56061;51.748;19.620;2023-03-03T01:42:42;45.60;;;17.00;;
69005;SDS011;56061;51.748;19.620;2023-03-03T01:45:23;46.50;;;16.40;;
69005;SDS011;56061;51.748;19.620;2023-03-03T01:48:15;46.60;;;17.80;;
69005;SDS011;56061;51.748;19.620;2023-03-03T01:53:50;46.20;;;16.70;;
69005;SDS011;56061;51.748;19.620;2023-03-03T01:56:19;45.30;;;17.90;;
69005;SDS011;56061;51.748;19.620;2023-03-03T01:58:52;45.20;;;16.40;;
69005;SDS011;56061;51.748;19.620;2023-03-03T02:01:26;50.90;;;17.30;;
69005;SDS011;56061;51.748;19.620;2023-03-03T02:03:54;50.40;;;17.70;;
69005;SDS011;56061;51.748;19.620;2023-03-03T02:06:23;50.80;;;17.40;;
69005;SDS011;56061;51.748;19.620;2023-03-03T02:09:10;56.00;;;18.60;;
69005;SDS011;56061;51.748;19.620;2023-03-03T02:13:43;50.00;;;16.70;;
69005;SDS011;56061;51.748;19.620;2023-03-03T02:16:09;44.90;;;16.70;;
69005;SDS011;56061;51.748;19.620;2023-03-03T02:18:36;40.80;;;16.20;;
69005;SDS011;56061;51.748;19.620;2023-03-03T02:21:17;37.90;;;15.20;;
69005;SDS011;56061;51.748;19.620;2023-03-03T02:23:55;41.50;;;14.80;;
69005;SDS011;56061;51.748;19.620;2023-03-03T02:26:30;38.20;;;13.50;;
69005;SDS011;56061;51.748;19.620;2023-03-03T02:28:59;39.60;;;15.00;;
69005;SDS011;56061;51.748;19.620;2023-03-03T02:31:28;39.80;;;15.30;;
69005;SDS011;56061;51.748;19.620;2023-03-03T02:33:55;37.20;;;15.20;;
69005;SDS011;56061;51.748;19.620;2023-03-03T02:36:26;40.80;;;14.60;;
69005;SDS011;56061;51.748;19.620;2023-03-03T02:39:23;38.80;;;13.30;;
69005;SDS011;56061;51.748;19.620;2023-03-03T02:42:06;41.70;;;14.30;;
69005;SDS011;56061;51.748;19.620;2023-03-03T02:44:38;37.50;;;14.50;;
69005;SDS011;56061;51.748;19.620;2023-03-03T02:47:04;44.30;;;14.90;;
69005;SDS011;56061;51.748;19.620;2023-03-03T02:49:33;38.90;;;14.30;;
69005;SDS011;56061;51.748;19.620;2023-03-03T02:52:03;35.10;;;14.10;;
69005;SDS011;56061;51.748;19.620;2023-03-03T02:54:32;33.90;;;13.20;;
69005;SDS011;56061;51.748;19.620;2023-03-03T02:56:59;34.90;;;13.50;;
69005;SDS011;56061;51.748;19.620;2023-03-03T02:59:26;34.90;;;13.70;;
69005;SDS011;56061;51.748;19.620;2023-03-03T03:01:53;38.30;;;13.90;;
69005;SDS011;56061;51.748;19.620;2023-03-03T03:04:22;41.50;;;14.30;;
69005;SDS011;56061;51.748;19.620;2023-03-03T03:06:52;40.40;;;13.60;;
69005;SDS011;56061;51.748;19.620;2023-03-03T03:09:21;35.90;;;13.00;;
69005;SDS011;56061;51.748;19.620;2023-03-03T03:11:49;40.90;;;14.50;;
69005;SDS011;56061;51.748;19.620;2023-03-03T03:14:16;43.10;;;16.10;;
69005;SDS011;56061;51.748;19.620;2023-03-03T03:16:42;40.50;;;14.40;;
69005;SDS011;56061;51.748;19.620;2023-03-03T03:19:09;42.20;;;14.30;;
69005;SDS011;56061;51.748;19.620;2023-03-03T03:21:36;40.00;;;14.50;;
69005;SDS011;56061;51.748;19.620;2023-03-03T03:24:03;42.50;;;15.70;;
69005;SDS011;56061;51.748;19.620;2023-03-03T03:26:29;40.30;;;15.80;;
69005;SDS011;56061;51.748;19.620;2023-03-03T03:28:56;42.60;;;16.50;;
69005;SDS011;56061;51.748;19.620;2023-03-03T03:31:22;42.20;;;14.60;;
69005;SDS011;56061;51.748;19.620;2023-03-03T03:33:49;41.70;;;14.30;;
69005;SDS011;56061;51.748;19.620;2023-03-03T03:36:16;41.40;;;15.60;;
69005;SDS011;56061;51.748;19.620;2023-03-03T03:38:42;39.00;;;14.60;;
69005;SDS011;56061;51.748;19.620;2023-03-03T03:41:10;39.90;;;13.90;;
69005;SDS011;56061;51.748;19.620;2023-03-03T03:43:37;42.00;;;13.90;;
69005;SDS011;56061;51.748;19.620;2023-03-03T03:46:04;43.00;;;13.70;;
69005;SDS011;56061;51.748;19.620;2023-03-03T03:48:31;39.70;;;13.30;;
69005;SDS011;56061;51.748;19.620;2023-03-03T03:50:58;44.80;;;15.80;;
69005;SDS011;56061;51.748;19.620;2023-03-03T03:53:24;41.10;;;13.70;;
69005;SDS011;56061;51.748;19.620;2023-03-03T03:55:51;44.60;;;15.10;;
69005;SDS011;56061;51.748;19.620;2023-03-03T03:58:18;45.70;;;15.60;;
69005;SDS011;56061;51.748;19.620;2023-03-03T04:00:46;37.10;;;13.60;;
69005;SDS011;56061;51.748;19.620;2023-03-03T04:03:13;35.70;;;13.10;;
69005;SDS011;56061;51.748;19.620;2023-03-03T04:05:40;37.00;;;13.80;;
69005;SDS011;56061;51.748;19.620;2023-03-03T04:08:07;36.70;;;13.50;;
69005;SDS011;56061;51.748;19.620;2023-03-03T04:10:34;37.20;;;13.40;;
69005;SDS011;56061;51.748;19.620;2023-03-03T04:13:01;33.70;;;11.40;;
69005;SDS011;56061;51.748;19.620;2023-03-03T04:15:27;36.00;;;13.90;;
69005;SDS011;56061;51.748;19.620;2023-03-03T04:17:54;36.90;;;12.50;;
69005;SDS011;56061;51.748;19.620;2023-03-03T04:20:20;34.90;;;13.70;;
69005;SDS011;56061;51.748;19.620;2023-03-03T04:22:47;34.80;;;13.80;;
69005;SDS011;56061;51.748;19.620;2023-03-03T04:25:15;38.40;;;12.60;;
69005;SDS011;56061;51.748;19.620;2023-03-03T04:27:43;35.60;;;13.00;;
69005;SDS011;56061;51.748;19.620;2023-03-03T04:30:12;40.80;;;15.00;;
69005;SDS011;56061;51.748;19.620;2023-03-03T04:32:40;44.30;;;15.10;;
69005;SDS011;56061;51.748;19.620;2023-03-03T04:35:08;43.10;;;15.70;;
69005;SDS011;56061;51.748;19.620;2023-03-03T04:37:35;44.80;;;14.70;;
69005;SDS011;56061;51.748;19.620;2023-03-03T04:40:05;40.80;;;14.20;;
69005;SDS011;56061;51.748;19.620;2023-03-03T04:42:34;43.90;;;14.50;;
69005;SDS011;56061;51.748;19.620;2023-03-03T04:45:01;44.00;;;14.70;;
69005;SDS011;56061;51.748;19.620;2023-03-03T04:47:28;46.90;;;15.00;;
69005;SDS011;56061;51.748;19.620;2023-03-03T04:49:56;43.90;;;15.50;;
69005;SDS011;56061;51.748;19.620;2023-03-03T04:52:22;39.00;;;14.00;;
69005;SDS011;56061;51.748;19.620;2023-03-03T04:54:49;41.50;;;14.60;;
69005;SDS011;56061;51.748;19.620;2023-03-03T04:57:15;43.30;;;14.90;;
69005;SDS011;56061;51.748;19.620;2023-03-03T04:59:42;38.40;;;14.00;;
69005;SDS011;56061;51.748;19.620;2023-03-03T05:02:08;46.40;;;16.10;;
69005;SDS011;56061;51.748;19.620;2023-03-03T05:04:35;41.40;;;16.00;;
69005;SDS011;56061;51.748;19.620;2023-03-03T05:07:02;41.40;;;15.40;;
69005;SDS011;56061;51.748;19.620;2023-03-03T05:09:28;43.10;;;14.90;;
69005;SDS011;56061;51.748;19.620;2023-03-03T05:11:55;41.90;;;15.60;;
69005;SDS011;56061;51.748;19.620;2023-03-03T05:14:22;49.10;;;18.00;;
69005;SDS011;56061;51.748;19.620;2023-03-03T05:16:48;44.30;;;15.60;;
69005;SDS011;56061;51.748;19.620;2023-03-03T05:19:14;62.80;;;23.10;;
69005;SDS011;56061;51.748;19.620;2023-03-03T05:21:41;70.30;;;23.10;;
69005;SDS011;56061;51.748;19.620;2023-03-03T05:24:09;58.00;;;20.50;;
69005;SDS011;56061;51.748;19.620;2023-03-03T05:26:37;51.00;;;17.60;;
69005;SDS011;56061;51.748;19.620;2023-03-03T05:29:05;52.10;;;18.00;;
69005;SDS011;56061;51.748;19.620;2023-03-03T05:31:33;46.00;;;15.80;;
69005;SDS011;56061;51.748;19.620;2023-03-03T05:33:59;41.70;;;16.60;;
69005;SDS011;56061;51.748;19.620;2023-03-03T05:36:26;42.50;;;16.20;;
69005;SDS011;56061;51.748;19.620;2023-03-03T05:38:52;47.20;;;17.30;;
69005;SDS011;56061;51.748;19.620;2023-03-03T05:41:19;45.90;;;17.90;;
69005;SDS011;56061;51.748;19.620;2023-03-03T05:43:45;46.70;;;19.50;;
69005;SDS011;56061;51.748;19.620;2023-03-03T05:46:12;73.10;;;26.80;;
69005;SDS011;56061;51.748;19.620;2023-03-03T05:48:39;59.40;;;21.40;;
69005;SDS011;56061;51.748;19.620;2023-03-03T05:51:05;58.10;;;21.90;;
69005;SDS011;56061;51.748;19.620;2023-03-03T05:53:32;78.90;;;28.80;;
69005;SDS011;56061;51.748;19.620;2023-03-03T05:55:58;66.80;;;23.20;;
69005;SDS011;56061;51.748;19.620;2023-03-03T05:58:25;66.70;;;22.50;;
69005;SDS011;56061;51.748;19.620;2023-03-03T06:00:52;65.70;;;23.00;;
69005;SDS011;56061;51.748;19.620;2023-03-03T06:03:19;43.30;;;15.00;;
69005;SDS011;56061;51.748;19.620;2023-03-03T06:05:45;69.70;;;23.20;;
69005;SDS011;56061;51.748;19.620;2023-03-03T06:08:12;69.20;;;23.00;;
69005;SDS011;56061;51.748;19.620;2023-03-03T06:10:38;71.60;;;23.40;;
69005;SDS011;56061;51.748;19.620;2023-03-03T06:13:05;66.10;;;23.60;;
69005;SDS011;56061;51.748;19.620;2023-03-03T06:15:31;46.70;;;18.00;;
69005;SDS011;56061;51.748;19.620;2023-03-03T06:17:58;43.60;;;16.90;;
69005;SDS011;56061;51.748;19.620;2023-03-03T06:20:24;63.40;;;24.20;;
69005;SDS011;56061;51.748;19.620;2023-03-03T06:22:51;65.80;;;24.30;;
69005;SDS011;56061;51.748;19.620;2023-03-03T06:25:18;64.70;;;26.10;;
69005;SDS011;56061;51.748;19.620;2023-03-03T06:27:44;53.20;;;20.60;;
69005;SDS011;56061;51.748;19.620;2023-03-03T06:30:11;49.20;;;18.00;;
69005;SDS011;56061;51.748;19.620;2023-03-03T06:32:38;42.60;;;16.60;;
69005;SDS011;56061;51.748;19.620;2023-03-03T06:35:05;45.30;;;16.20;;
69005;SDS011;56061;51.748;19.620;2023-03-03T06:37:32;49.50;;;15.90;;
69005;SDS011;56061;51.748;19.620;2023-03-03T06:39:58;44.50;;;17.00;;
69005;SDS011;56061;51.748;19.620;2023-03-03T06:42:25;46.00;;;16.70;;
69005;SDS011;56061;51.748;19.620;2023-03-03T06:44:52;42.30;;;16.20;;
69005;SDS011;56061;51.748;19.620;2023-03-03T06:47:18;41.90;;;15.90;;
69005;SDS011;56061;51.748;19.620;2023-03-03T06:49:45;43.10;;;16.30;;
69005;SDS011;56061;51.748;19.620;2023-03-03T06:52:16;43.70;;;15.00;;
69005;SDS011;56061;51.748;19.620;2023-03-03T06:54:45;41.10;;;15.20;;
69005;SDS011;56061;51.748;19.620;2023-03-03T06:57:19;40.90;;;14.90;;
69005;SDS011;56061;51.748;19.620;2023-03-03T06:59:56;37.60;;;14.50;;
69005;SDS011;56061;51.748;19.620;2023-03-03T07:02:25;41.20;;;16.00;;
69005;SDS011;56061;51.748;19.620;2023-03-03T07:04:54;44.50;;;14.60;;
69005;SDS011;56061;51.748;19.620;2023-03-03T07:07:24;47.80;;;17.60;;
69005;SDS011;56061;51.748;19.620;2023-03-03T07:09:53;53.60;;;18.60;;
69005;SDS011;56061;51.748;19.620;2023-03-03T07:12:27;50.40;;;18.00;;
69005;SDS011;56061;51.748;19.620;2023-03-03T07:17:34;51.90;;;17.10;;
69005;SDS011;56061;51.748;19.620;2023-03-03T07:20:16;43.90;;;15.50;;
69005;SDS011;56061;51.748;19.620;2023-03-03T07:22:48;46.40;;;17.30;;
69005;SDS011;56061;51.748;19.620;2023-03-03T07:25:30;49.40;;;17.10;;
69005;SDS011;56061;51.748;19.620;2023-03-03T07:28:06;44.40;;;15.90;;
69005;SDS011;56061;51.748;19.620;2023-03-03T07:30:47;52.10;;;19.00;;
69005;SDS011;56061;51.748;19.620;2023-03-03T07:33:35;58.20;;;19.70;;
69005;SDS011;56061;51.748;19.620;2023-03-03T07:36:23;41.60;;;16.20;;
69005;SDS011;56061;51.748;19.620;2023-03-03T07:38:56;42.90;;;15.60;;
69005;SDS011;56061;51.748;19.620;2023-03-03T07:41:26;56.10;;;19.10;;
69005;SDS011;56061;51.748;19.620;2023-03-03T07:43:57;65.20;;;23.40;;
69005;SDS011;56061;51.748;19.620;2023-03-03T07:51:54;51.30;;;17.70;;
69005;SDS011;56061;51.748;19.620;2023-03-03T07:56:52;44.10;;;15.10;;
69005;SDS011;56061;51.748;19.620;2023-03-03T07:59:24;50.50;;;17.50;;
69005;SDS011;56061;51.748;19.620;2023-03-03T08:01:54;66.00;;;21.20;;
69005;SDS011;56061;51.748;19.620;2023-03-03T08:04:39;50.70;;;18.10;;
69005;SDS011;56061;51.748;19.620;2023-03-03T08:07:13;47.00;;;17.00;;
69005;SDS011;56061;51.748;19.620;2023-03-03T08:09:47;51.00;;;19.50;;
69005;SDS011;56061;51.748;19.620;2023-03-03T08:15:16;46.30;;;15.40;;
69005;SDS011;56061;51.748;19.620;2023-03-03T08:17:46;37.10;;;13.50;;
69005;SDS011;56061;51.748;19.620;2023-03-03T08:20:48;42.80;;;14.00;;
69005;SDS011;56061;51.748;19.620;2023-03-03T08:23:18;40.10;;;13.30;;
69005;SDS011;56061;51.748;19.620;2023-03-03T08:25:48;36.00;;;12.30;;
69005;SDS011;56061;51.748;19.620;2023-03-03T08:28:16;54.50;;;19.10;;
69005;SDS011;56061;51.748;19.620;2023-03-03T08:30:44;47.00;;;14.90;;
69005;SDS011;56061;51.748;19.620;2023-03-03T08:33:11;60.50;;;20.20;;
69005;SDS011;56061;51.748;19.620;2023-03-03T08:35:38;62.10;;;22.80;;
69005;SDS011;56061;51.748;19.620;2023-03-03T08:38:05;42.90;;;16.10;;
69005;SDS011;56061;51.748;19.620;2023-03-03T08:40:32;48.70;;;16.70;;
69005;SDS011;56061;51.748;19.620;2023-03-03T08:43:00;49.60;;;17.70;;
69005;SDS011;56061;51.748;19.620;2023-03-03T08:45:27;50.40;;;17.40;;
69005;SDS011;56061;51.748;19.620;2023-03-03T08:47:54;53.50;;;18.80;;
69005;SDS011;56061;51.748;19.620;2023-03-03T08:50:21;45.70;;;16.80;;
69005;SDS011;56061;51.748;19.620;2023-03-03T08:52:47;43.10;;;16.00;;
69005;SDS011;56061;51.748;19.620;2023-03-03T08:55:14;48.20;;;16.90;;
69005;SDS011;56061;51.748;19.620;2023-03-03T08:57:41;44.70;;;16.30;;
69005;SDS011;56061;51.748;19.620;2023-03-03T09:00:12;47.30;;;16.50;;
69005;SDS011;56061;51.748;19.620;2023-03-03T09:02:40;54.10;;;18.40;;
69005;SDS011;56061;51.748;19.620;2023-03-03T09:05:08;48.00;;;16.60;;
69005;SDS011;56061;51.748;19.620;2023-03-03T09:07:36;37.70;;;12.70;;
69005;SDS011;56061;51.748;19.620;2023-03-03T09:10:04;40.80;;;13.80;;
69005;SDS011;56061;51.748;19.620;2023-03-03T09:12:40;39.70;;;14.00;;
69005;SDS011;56061;51.748;19.620;2023-03-03T09:17:44;39.00;;;13.00;;
69005;SDS011;56061;51.748;19.620;2023-03-03T09:23:34;34.50;;;12.20;;
69005;SDS011;56061;51.748;19.620;2023-03-03T09:28:36;40.30;;;12.90;;
69005;SDS011;56061;51.748;19.620;2023-03-03T09:31:03;38.80;;;13.30;;
69005;SDS011;56061;51.748;19.620;2023-03-03T09:33:47;38.60;;;12.30;;
69005;SDS011;56061;51.748;19.620;2023-03-03T09:38:57;46.80;;;14.20;;
69005;SDS011;56061;51.748;19.620;2023-03-03T09:54:28;40.50;;;14.10;;
69005;SDS011;56061;51.748;19.620;2023-03-03T09:57:04;42.30;;;15.30;;
69005;SDS011;56061;51.748;19.620;2023-03-03T09:59:48;39.90;;;13.60;;
69005;SDS011;56061;51.748;19.620;2023-03-03T10:08:24;34.40;;;11.90;;
69005;SDS011;56061;51.748;19.620;2023-03-03T10:13:59;36.60;;;12.90;;
69005;SDS011;56061;51.748;19.620;2023-03-03T10:17:03;30.10;;;11.00;;
69005;SDS011;56061;51.748;19.620;2023-03-03T10:22:41;40.70;;;13.30;;
69005;SDS011;56061;51.748;19.620;2023-03-03T10:25:41;41.00;;;13.90;;
69005;SDS011;56061;51.748;19.620;2023-03-03T10:31:09;38.00;;;12.90;;
69005;SDS011;56061;51.748;19.620;2023-03-03T10:37:03;41.00;;;13.60;;
69005;SDS011;56061;51.748;19.620;2023-03-03T10:40:02;42.20;;;14.70;;
69005;SDS011;56061;51.748;19.620;2023-03-03T10:42:50;44.50;;;15.00;;
69005;SDS011;56061;51.748;19.620;2023-03-03T10:45:43;33.80;;;11.70;;
69005;SDS011;56061;51.748;19.620;2023-03-03T10:48:51;42.60;;;13.60;;
69005;SDS011;56061;51.748;19.620;2023-03-03T10:51:54;36.90;;;13.30;;
69005;SDS011;56061;51.748;19.620;2023-03-03T10:57:51;35.80;;;12.90;;
69005;SDS011;56061;51.748;19.620;2023-03-03T11:00:48;43.40;;;14.70;;
69005;SDS011;56061;51.748;19.620;2023-03-03T11:03:37;41.80;;;14.20;;
69005;SDS011;56061;51.748;19.620;2023-03-03T11:06:15;55.10;;;17.90;;
69005;SDS011;56061;51.748;19.620;2023-03-03T11:08:55;66.10;;;23.50;;
69005;SDS011;56061;51.748;19.620;2023-03-03T11:17:22;37.70;;;13.40;;
69005;SDS011;56061;51.748;19.620;2023-03-03T11:33:02;40.60;;;13.70;;
69005;SDS011;56061;51.748;19.620;2023-03-03T11:38:58;42.10;;;13.70;;
69005;SDS011;56061;51.748;19.620;2023-03-03T11:41:31;37.30;;;11.20;;
69005;SDS011;56061;51.748;19.620;2023-03-03T11:44:49;50.30;;;16.10;;
69005;SDS011;56061;51.748;19.620;2023-03-03T11:47:26;42.90;;;11.90;;
69005;SDS011;56061;51.748;19.620;2023-03-03T11:52:42;46.20;;;15.50;;
69005;SDS011;56061;51.748;19.620;2023-03-03T11:55:24;40.90;;;12.60;;
69005;SDS011;56061;51.748;19.620;2023-03-03T11:58:21;39.90;;;12.10;;
69005;SDS011;56061;51.748;19.620;2023-03-03T12:04:03;41.90;;;14.00;;
69005;SDS011;56061;51.748;19.620;2023-03-03T12:12:41;49.90;;;15.30;;
69005;SDS011;56061;51.748;19.620;2023-03-03T12:15:31;60.60;;;19.80;;
69005;SDS011;56061;51.748;19.620;2023-03-03T12:21:02;49.10;;;16.90;;
69005;SDS011;56061;51.748;19.620;2023-03-03T12:27:04;58.20;;;18.70;;
69005;SDS011;56061;51.748;19.620;2023-03-03T12:29:49;53.70;;;16.30;;
69005;SDS011;56061;51.748;19.620;2023-03-03T12:32:40;51.80;;;16.70;;
69005;SDS011;56061;51.748;19.620;2023-03-03T12:35:51;49.60;;;15.80;;
69005;SDS011;56061;51.748;19.620;2023-03-03T12:41:39;55.80;;;17.20;;
69005;SDS011;56061;51.748;19.620;2023-03-03T12:44:25;44.40;;;15.00;;
69005;SDS011;56061;51.748;19.620;2023-03-03T12:47:15;42.50;;;14.60;;
69005;SDS011;56061;51.748;19.620;2023-03-03T12:52:59;42.10;;;15.20;;
69005;SDS011;56061;51.748;19.620;2023-03-03T12:55:54;45.80;;;16.00;;
69005;SDS011;56061;51.748;19.620;2023-03-03T12:58:31;44.90;;;15.00;;
69005;SDS011;56061;51.748;19.620;2023-03-03T13:01:18;57.10;;;17.70;;
69005;SDS011;56061;51.748;19.620;2023-03-03T13:04:11;45.40;;;15.90;;
69005;SDS011;56061;51.748;19.620;2023-03-03T13:07:04;48.60;;;15.60;;
69005;SDS011;56061;51.748;19.620;2023-03-03T13:10:17;54.60;;;17.10;;
69005;SDS011;56061;51.748;19.620;2023-03-03T13:12:58;46.30;;;15.30;;
69005;SDS011;56061;51.748;19.620;2023-03-03T13:15:57;39.60;;;14.50;;
69005;SDS011;56061;51.748;19.620;2023-03-03T13:26:57;32.10;;;11.30;;
69005;SDS011;56061;51.748;19.620;2023-03-03T13:32:34;46.70;;;17.30;;
69005;SDS011;56061;51.748;19.620;2023-03-03T13:38:24;34.80;;;13.10;;
69005;SDS011;56061;51.748;19.620;2023-03-03T13:41:13;46.30;;;18.30;;
69005;SDS011;56061;51.748;19.620;2023-03-03T13:44:01;45.50;;;16.90;;
69005;SDS011;56061;51.748;19.620;2023-03-03T13:47:13;33.60;;;13.10;;
69005;SDS011;56061;51.748;19.620;2023-03-03T13:55:45;39.10;;;15.40;;
69005;SDS011;56061;51.748;19.620;2023-03-03T13:58:28;35.90;;;14.40;;
69005;SDS011;56061;51.748;19.620;2023-03-03T14:01:04;32.70;;;12.60;;
69005;SDS011;56061;51.748;19.620;2023-03-03T14:03:46;41.70;;;17.80;;
69005;SDS011;56061;51.748;19.620;2023-03-03T14:06:30;44.20;;;16.80;;
69005;SDS011;56061;51.748;19.620;2023-03-03T14:09:21;38.20;;;14.70;;
69005;SDS011;56061;51.748;19.620;2023-03-03T14:15:22;45.90;;;16.60;;
69005;SDS011;56061;51.748;19.620;2023-03-03T14:18:17;39.10;;;14.00;;
69005;SDS011;56061;51.748;19.620;2023-03-03T14:20:51;32.90;;;11.80;;
69005;SDS011;56061;51.748;19.620;2023-03-03T14:23:27;35.00;;;12.30;;
69005;SDS011;56061;51.748;19.620;2023-03-03T14:28:43;37.40;;;13.50;;
69005;SDS011;56061;51.748;19.620;2023-03-03T14:31:25;35.50;;;13.60;;
69005;SDS011;56061;51.748;19.620;2023-03-03T14:36:49;33.10;;;13.90;;
69005;SDS011;56061;51.748;19.620;2023-03-03T14:39:49;37.50;;;13.70;;
69005;SDS011;56061;51.748;19.620;2023-03-03T14:42:32;30.10;;;11.40;;
69005;SDS011;56061;51.748;19.620;2023-03-03T14:45:20;32.20;;;12.90;;
69005;SDS011;56061;51.748;19.620;2023-03-03T14:48:16;42.30;;;17.80;;
69005;SDS011;56061;51.748;19.620;2023-03-03T14:50:53;30.50;;;12.00;;
69005;SDS011;56061;51.748;19.620;2023-03-03T14:53:32;40.80;;;13.80;;
69005;SDS011;56061;51.748;19.620;2023-03-03T14:56:27;50.50;;;19.80;;
69005;SDS011;56061;51.748;19.620;2023-03-03T14:59:18;50.20;;;18.60;;
69005;SDS011;56061;51.748;19.620;2023-03-03T15:01:46;29.30;;;11.70;;
69005;SDS011;56061;51.748;19.620;2023-03-03T15:04:27;27.70;;;11.90;;
69005;SDS011;56061;51.748;19.620;2023-03-03T15:06:56;42.20;;;14.80;;
69005;SDS011;56061;51.748;19.620;2023-03-03T15:09:26;66.90;;;24.90;;
69005;SDS011;56061;51.748;19.620;2023-03-03T15:12:02;59.40;;;22.60;;
69005;SDS011;56061;51.748;19.620;2023-03-03T15:14:46;120.40;;;57.30;;
69005;SDS011;56061;51.748;19.620;2023-03-03T15:17:27;51.60;;;18.50;;
69005;SDS011;56061;51.748;19.620;2023-03-03T15:22:42;44.10;;;16.80;;
69005;SDS011;56061;51.748;19.620;2023-03-03T15:25:25;40.40;;;13.40;;
69005;SDS011;56061;51.748;19.620;2023-03-03T15:42:33;33.10;;;13.20;;
69005;SDS011;56061;51.748;19.620;2023-03-03T15:45:24;57.30;;;19.70;;
69005;SDS011;56061;51.748;19.620;2023-03-03T15:48:40;25.90;;;10.70;;
69005;SDS011;56061;51.748;19.620;2023-03-03T15:54:36;37.30;;;12.90;;
69005;SDS011;56061;51.748;19.620;2023-03-03T15:57:21;42.10;;;15.00;;
69005;SDS011;56061;51.748;19.620;2023-03-03T16:00:24;42.40;;;16.00;;
69005;SDS011;56061;51.748;19.620;2023-03-03T16:03:19;33.30;;;12.50;;
69005;SDS011;56061;51.748;19.620;2023-03-03T16:05:55;51.10;;;17.90;;
69005;SDS011;56061;51.748;19.620;2023-03-03T16:08:43;33.60;;;12.40;;
69005;SDS011;56061;51.748;19.620;2023-03-03T16:11:20;29.60;;;11.20;;
69005;SDS011;56061;51.748;19.620;2023-03-03T16:17:23;40.50;;;15.50;;
69005;SDS011;56061;51.748;19.620;2023-03-03T16:20:20;97.70;;;41.70;;
69005;SDS011;56061;51.748;19.620;2023-03-03T16:23:05;41.00;;;17.70;;
69005;SDS011;56061;51.748;19.620;2023-03-03T16:26:17;44.10;;;19.20;;
69005;SDS011;56061;51.748;19.620;2023-03-03T16:29:04;46.40;;;21.30;;
69005;SDS011;56061;51.748;19.620;2023-03-03T16:32:19;34.70;;;13.00;;
69005;SDS011;56061;51.748;19.620;2023-03-03T16:34:56;30.20;;;10.60;;
69005;SDS011;56061;51.748;19.620;2023-03-03T16:37:50;35.30;;;13.60;;
69005;SDS011;56061;51.748;19.620;2023-03-03T16:40:31;40.90;;;15.40;;
69005;SDS011;56061;51.748;19.620;2023-03-03T16:43:17;35.10;;;13.30;;
69005;SDS011;56061;51.748;19.620;2023-03-03T16:45:49;24.00;;;9.80;;
69005;SDS011;56061;51.748;19.620;2023-03-03T16:48:34;30.70;;;12.70;;
69005;SDS011;56061;51.748;19.620;2023-03-03T16:51:19;37.80;;;15.00;;
69005;SDS011;56061;51.748;19.620;2023-03-03T16:54:15;34.60;;;13.90;;
69005;SDS011;56061;51.748;19.620;2023-03-03T17:03:23;36.60;;;14.70;;
69005;SDS011;56061;51.748;19.620;2023-03-03T17:06:05;36.00;;;14.60;;
69005;SDS011;56061;51.748;19.620;2023-03-03T17:11:44;38.50;;;14.10;;
69005;SDS011;56061;51.748;19.620;2023-03-03T17:14:57;40.50;;;15.60;;
69005;SDS011;56061;51.748;19.620;2023-03-03T17:17:43;29.60;;;12.00;;
69005;SDS011;56061;51.748;19.620;2023-03-03T17:20:29;25.80;;;9.70;;
69005;SDS011;56061;51.748;19.620;2023-03-03T17:29:33;40.90;;;16.20;;
69005;SDS011;56061;51.748;19.620;2023-03-03T17:32:42;47.20;;;20.00;;
69005;SDS011;56061;51.748;19.620;2023-03-03T17:46:49;39.10;;;14.20;;
69005;SDS011;56061;51.748;19.620;2023-03-03T17:49:45;33.50;;;13.80;;
69005;SDS011;56061;51.748;19.620;2023-03-03T18:01:13;28.20;;;11.10;;
69005;SDS011;56061;51.748;19.620;2023-03-03T18:07:06;35.50;;;13.60;;
69005;SDS011;56061;51.748;19.620;2023-03-03T18:13:07;26.90;;;10.10;;
69005;SDS011;56061;51.748;19.620;2023-03-03T18:22:24;28.50;;;11.60;;
69005;SDS011;56061;51.748;19.620;2023-03-03T18:25:18;28.10;;;11.60;;
69005;SDS011;56061;51.748;19.620;2023-03-03T18:31:00;29.60;;;11.30;;
69005;SDS011;56061;51.748;19.620;2023-03-03T18:33:41;27.80;;;10.30;;
69005;SDS011;56061;51.748;19.620;2023-03-03T18:36:14;26.60;;;11.20;;